| time (UTC) | temp F | wind direction | speed MPH | gust MPH | rain 1hr in | rain 24hr in | rain mn in | humidity % | barometer mb |
| 20260507191559 | 59 | 78 | 2.0 | 6.0 | 0.00 | 0.00 | 0.00 | 88 | 1010.8 |
| 20260507190057 | 59 | 104 | 2.0 | 6.0 | 0.00 | 0.00 | 0.00 | 88 | 1010.8 |
| 20260507184556 | 59 | 104 | 4.0 | 8.0 | 0.00 | 0.00 | 0.00 | 88 | 1010.6 |
| 20260507183055 | 60 | 113 | 3.0 | 7.0 | 0.00 | 0.00 | 0.00 | 86 | 1010.5 |
| 20260507181554 | 60 | 86 | 4.0 | 10.0 | 0.00 | 0.00 | 0.00 | 84 | 1010.6 |
| 20260507180059 | 60 | 80 | 4.0 | 7.0 | 0.00 | 0.00 | 0.00 | 81 | 1010.3 |
| 20260507174606 | 61 | 86 | 4.0 | 10.0 | 0.00 | 0.00 | 0.00 | 80 | 1010.1 |
| 20260507173052 | 61 | 82 | 4.0 | 10.0 | 0.00 | 0.00 | 0.00 | 78 | 1009.8 |
| 20260507171603 | 61 | 63 | 4.0 | 9.0 | 0.00 | 0.00 | 0.00 | 76 | 1010.0 |
| 20260507170051 | 62 | 78 | 4.0 | 11.0 | 0.00 | 0.00 | 0.00 | 74 | 1009.9 |
| 20260507164552 | 62 | 129 | 6.0 | 13.0 | 0.00 | 0.00 | 0.00 | 73 | 1009.8 |
| 20260507163051 | 63 | 40 | 5.0 | 11.0 | 0.00 | 0.00 | 0.00 | 70 | 1009.9 |
| 20260507161547 | 63 | 78 | 7.0 | 12.0 | 0.00 | 0.00 | 0.00 | 68 | 1009.9 |
| 20260507160053 | 63 | 74 | 6.0 | 11.0 | 0.00 | 0.00 | 0.00 | 68 | 1010.0 |
| 20260507154544 | 64 | 86 | 7.0 | 12.0 | 0.00 | 0.00 | 0.00 | 69 | 1010.0 |
| 20260507153046 | 64 | 69 | 5.0 | 11.0 | 0.00 | 0.00 | 0.00 | 70 | 1010.0 |
| 20260507151545 | 64 | 69 | 4.0 | 10.0 | 0.00 | 0.00 | 0.00 | 69 | 1010.1 |
| 20260507150043 | 64 | 74 | 5.0 | 10.0 | 0.00 | 0.00 | 0.00 | 68 | 1010.1 |
| 20260507144542 | 65 | 90 | 5.0 | 11.0 | 0.00 | 0.00 | 0.00 | 68 | 1010.1 |
| 20260507143048 | 66 | 70 | 3.0 | 8.0 | 0.00 | 0.00 | 0.00 | 64 | 1010.0 |
| 20260507141544 | 67 | 31 | 3.0 | 10.0 | 0.00 | 0.00 | 0.00 | 63 | 1010.2 |
| 20260507140048 | 66 | 79 | 5.0 | 11.0 | 0.00 | 0.00 | 0.00 | 64 | 1010.1 |
| 20260507134540 | 67 | 59 | 4.0 | 9.0 | 0.00 | 0.00 | 0.00 | 64 | 1010.2 |
| 20260507133041 | 67 | 78 | 4.0 | 12.0 | 0.00 | 0.00 | 0.00 | 63 | 1010.2 |
| 20260507131538 | 68 | 84 | 2.0 | 8.0 | 0.00 | 0.00 | 0.00 | 61 | 1010.3 |
| 20260507130049 | 67 | 78 | 2.0 | 10.0 | 0.00 | 0.00 | 0.00 | 64 | 1010.3 |
| 20260507124553 | 67 | 63 | 3.0 | 10.0 | 0.00 | 0.00 | 0.00 | 63 | 1010.2 |
| 20260507123036 | 67 | 95 | 5.0 | 11.0 | 0.00 | 0.00 | 0.00 | 62 | 1010.3 |
| 20260507121536 | 69 | 86 | 3.0 | 10.0 | 0.00 | 0.00 | 0.00 | 60 | 1010.3 |
| 20260507120033 | 68 | 19 | 2.0 | 14.0 | 0.00 | 0.00 | 0.00 | 60 | 1010.4 |
| 20260507114532 | 69 | 53 | 5.0 | 14.0 | 0.00 | 0.00 | 0.00 | 58 | 1010.4 |
| 20260507113031 | 72 | 119 | 1.0 | 6.0 | 0.00 | 0.00 | 0.00 | 47 | 1010.4 |
| 20260507111529 | 71 | 9 | 0.0 | 3.0 | 0.00 | 0.00 | 0.00 | 46 | 1010.6 |
| 20260507110031 | 70 | 246 | 1.0 | 4.0 | 0.00 | 0.00 | 0.00 | 49 | 1010.7 |
| 20260507104525 | 70 | 66 | 1.0 | 4.0 | 0.00 | 0.00 | 0.00 | 48 | 1010.8 |
| 20260507103024 | 70 | 258 | 1.0 | 3.0 | 0.00 | 0.00 | 0.00 | 51 | 1010.7 |
| 20260507101525 | 69 | 293 | 2.0 | 5.0 | 0.00 | 0.00 | 0.00 | 54 | 1010.8 |
| 20260507100025 | 70 | 311 | 1.0 | 5.0 | 0.00 | 0.00 | 0.00 | 53 | 1010.9 |
| 20260507094520 | 68 | 29 | 0.0 | 4.0 | 0.00 | 0.00 | 0.00 | 51 | 1010.9 |
| 20260507093026 | 67 | 294 | 3.0 | 5.0 | 0.00 | 0.00 | 0.00 | 53 | 1010.9 |
| 20260507091531 | 68 | 293 | 1.0 | 4.0 | 0.00 | 0.00 | 0.00 | 53 | 1010.8 |
| 20260507090018 | 69 | 348 | 1.0 | 3.0 | 0.00 | 0.00 | 0.00 | 54 | 1010.8 |
| 20260507084520 | 69 | 87 | 0.0 | 7.0 | 0.00 | 0.00 | 0.00 | 53 | 1010.8 |
| 20260507083014 | 68 | 211 | 0.0 | 5.0 | 0.00 | 0.00 | 0.00 | 52 | 1010.7 |
| 20260507081511 | 67 | 185 | 1.0 | 6.0 | 0.00 | 0.00 | 0.00 | 52 | 1010.5 |
| 20260507080010 | 67 | 134 | 1.0 | 3.0 | 0.00 | 0.00 | 0.00 | 53 | 1010.5 |
| 20260507074509 | 67 | 77 | 2.0 | 6.0 | 0.00 | 0.00 | 0.00 | 54 | 1010.3 |
| 20260507073005 | 66 | 350 | 0.0 | 2.0 | 0.00 | 0.00 | 0.00 | 60 | 1010.3 |
| 20260507071504 | 65 | 86 | 0.0 | 4.0 | 0.00 | 0.00 | 0.00 | 64 | 1010.3 |
| 20260507070116 | 63 | 324 | 0.0 | 2.0 | 0.00 | 0.00 | 0.00 | 66 | 1010.3 |
| 20260507064605 | 61 | 360 | 1.0 | 3.0 | 0.00 | 0.00 | 0.00 | 69 | 1010.3 |
| 20260507063059 | 59 | 164 | 1.0 | 5.0 | 0.00 | 0.00 | 0.00 | 72 | 1010.1 |
| 20260507061553 | 57 | 190 | 0.0 | 4.0 | 0.00 | 0.00 | 0.00 | 71 | 1010.2 |
| 20260507060051 | 56 | 257 | 0.0 | 4.0 | 0.00 | 0.00 | 0.00 | 72 | 1010.0 |
| 20260507054553 | 57 | 351 | 0.0 | 6.0 | 0.00 | 0.00 | 0.00 | 74 | 1009.9 |
| 20260507053048 | 57 | 166 | 3.0 | 6.0 | 0.00 | 0.00 | 0.00 | 73 | 1009.9 |
| 20260507051648 | 57 | 198 | 3.0 | 5.0 | 0.00 | 0.00 | 0.00 | 73 | 1009.9 |
| 20260507050046 | 57 | 287 | 0.0 | 3.0 | 0.00 | 0.02 | 0.00 | 75 | 1009.8 |
| 20260507044545 | 57 | 277 | 0.0 | 2.0 | 0.00 | 0.02 | 0.00 | 74 | 1009.7 |
| 20260507043042 | 57 | 241 | 0.0 | 2.0 | 0.00 | 0.02 | 0.00 | 73 | 1009.4 |
| 20260507041541 | 57 | 199 | 0.0 | 3.0 | 0.00 | 0.02 | 0.00 | 74 | 1009.3 |
| 20260507040040 | 58 | 146 | 1.0 | 2.0 | 0.00 | 0.02 | 0.00 | 74 | 1009.3 |
| 20260507034540 | 57 | 150 | 0.0 | 4.0 | 0.00 | 0.02 | 0.00 | 75 | 1009.0 |
| 20260507033037 | 57 | 154 | 0.0 | 2.0 | 0.00 | 0.02 | 0.00 | 77 | 1009.0 |
| 20260507031537 | 57 | 167 | 0.0 | 1.0 | 0.00 | 0.02 | 0.00 | 78 | 1009.0 |
| 20260507030036 | 57 | 167 | 0.0 | 1.0 | 0.00 | 0.02 | 0.00 | 77 | 1008.9 |
| 20260507024536 | 58 | 161 | 1.0 | 2.0 | 0.00 | 0.02 | 0.00 | 77 | 1008.9 |
| 20260507023035 | 58 | 318 | 0.0 | 2.0 | 0.00 | 0.02 | 0.00 | 77 | 1008.8 |
| 20260507021533 | 59 | 210 | 0.0 | 2.0 | 0.00 | 0.02 | 0.00 | 76 | 1008.9 |
| 20260507020041 | 59 | 318 | 0.0 | 2.0 | 0.00 | 0.02 | 0.00 | 76 | 1008.9 |
| 20260507014533 | 58 | 304 | 0.0 | 5.0 | 0.00 | 0.02 | 0.00 | 77 | 1008.9 |
| 20260507013045 | 58 | 279 | 0.0 | 2.0 | 0.00 | 0.02 | 0.00 | 80 | 1008.8 |
| 20260507011531 | 58 | 202 | 2.0 | 5.0 | 0.00 | 0.02 | 0.00 | 79 | 1008.8 |
| 20260507010036 | 58 | 200 | 2.0 | 6.0 | 0.00 | 0.02 | 0.00 | 80 | 1008.8 |
| 20260507004527 | 58 | 222 | 2.0 | 4.0 | 0.00 | 0.02 | 0.00 | 80 | 1008.9 |
| 20260507003027 | 59 | 279 | 0.0 | 2.0 | 0.00 | 0.02 | 0.00 | 78 | 1008.9 |
| 20260507001530 | 59 | 189 | 0.0 | 1.0 | 0.00 | 0.02 | 0.00 | 78 | 1008.9 |
| 20260507000027 | 58 | 294 | 1.0 | 3.0 | 0.00 | 0.02 | 0.00 | 79 | 1009.0 |
| 20260506234531 | 58 | 288 | 1.0 | 3.0 | 0.00 | 0.02 | 0.00 | 82 | 1009.0 |
| 20260506233027 | 59 | 296 | 0.0 | 2.0 | 0.00 | 0.02 | 0.00 | 81 | 1009.0 |
| 20260506231524 | 60 | 101 | 0.0 | 1.0 | 0.00 | 0.02 | 0.00 | 77 | 1008.9 |
| 20260506230021 | 61 | 76 | 2.0 | 5.0 | 0.00 | 0.02 | 0.00 | 74 | 1008.8 |
| 20260506224515 | 61 | 110 | 0.0 | 4.0 | 0.00 | 0.02 | 0.00 | 72 | 1008.8 |
| 20260506223014 | 62 | 236 | 1.0 | 6.0 | 0.00 | 0.02 | 0.00 | 72 | 1009.0 |
| 20260506221512 | 61 | 136 | 4.0 | 8.0 | 0.00 | 0.02 | 0.00 | 72 | 1008.8 |
| 20260506220021 | 61 | 107 | 4.0 | 9.0 | 0.00 | 0.05 | 0.02 | 72 | 1008.8 |
| 20260506214510 | 61 | 116 | 2.0 | 5.0 | 0.00 | 0.05 | 0.02 | 73 | 1009.0 |
| 20260506213008 | 61 | 105 | 2.0 | 8.0 | 0.00 | 0.05 | 0.02 | 74 | 1009.0 |
| 20260506211513 | 61 | 87 | 1.0 | 8.0 | 0.00 | 0.05 | 0.02 | 75 | 1009.0 |
| 20260506210012 | 59 | 138 | 3.0 | 10.0 | 0.00 | 0.10 | 0.02 | 79 | 1008.8 |
| 20260506204506 | 59 | 96 | 1.0 | 3.0 | 0.00 | 0.10 | 0.02 | 82 | 1009.0 |
| 20260506203006 | 59 | 318 | 1.0 | 2.0 | 0.00 | 0.10 | 0.02 | 82 | 1009.0 |
| 20260506201507 | 59 | 242 | 1.0 | 3.0 | 0.00 | 0.10 | 0.02 | 81 | 1008.8 |
| 20260506200010 | 60 | 243 | 0.0 | 3.0 | 0.00 | 0.20 | 0.02 | 80 | 1008.8 |
| 20260506194504 | 60 | 267 | 0.0 | 3.0 | 0.00 | 0.20 | 0.02 | 80 | 1008.6 |
| 20260506193004 | 60 | 262 | 1.0 | 4.0 | 0.00 | 0.20 | 0.02 | 79 | 1008.6 |